createdAt,value
2022-12-27T00:41:15.672Z,9.04
2022-12-27T00:42:16.719Z,8.83
2022-12-27T00:43:16.667Z,8.66
2022-12-27T00:44:16.095Z,8.5
2022-12-27T00:45:15.649Z,8.39
2022-12-27T00:46:15.583Z,8.4
2022-12-27T00:47:15.569Z,8.25
2022-12-27T00:48:15.713Z,7.99
2022-12-27T00:49:15.543Z,7.94
2022-12-27T00:50:15.567Z,8.03
2022-12-27T00:51:16.572Z,8.36
2022-12-27T00:52:15.535Z,8.3
2022-12-27T00:53:15.578Z,8.22
2022-12-27T00:54:16.478Z,8.21
2022-12-27T00:55:15.472Z,8.26
2022-12-27T00:56:15.454Z,8.33
2022-12-27T00:57:15.441Z,8.2
2022-12-27T00:58:15.431Z,8.37
2022-12-27T00:59:15.450Z,8.45
2022-12-27T01:00:15.534Z,8.32
2022-12-27T01:01:15.399Z,8.37
2022-12-27T01:02:15.399Z,8.51
2022-12-27T01:03:15.382Z,8.37
2022-12-27T01:04:15.366Z,8.4
2022-12-27T01:05:15.360Z,8.54
2022-12-27T01:06:15.612Z,8.75
2022-12-27T01:07:15.702Z,8.79
2022-12-27T01:08:15.341Z,8.55
2022-12-27T01:09:15.320Z,8.45
2022-12-27T01:10:15.304Z,8.55
2022-12-27T01:11:15.300Z,8.72
2022-12-27T01:12:15.289Z,8.75
2022-12-27T01:13:15.277Z,8.73
2022-12-27T01:14:15.270Z,8.65
2022-12-27T01:15:15.266Z,8.53
2022-12-27T01:16:15.246Z,8.6
2022-12-27T01:17:15.235Z,-40
2022-12-27T01:18:15.269Z,-40
2022-12-27T01:19:15.286Z,-40
2022-12-27T01:20:15.414Z,-40
2022-12-27T01:21:15.350Z,-40
2022-12-27T01:22:15.327Z,-40
2022-12-27T01:23:15.172Z,-40
2022-12-27T01:24:15.167Z,-40
2022-12-27T01:25:15.247Z,-40
2022-12-27T01:26:15.249Z,-40
2022-12-27T01:27:15.144Z,-40
2022-12-27T01:28:15.119Z,-40
2022-12-27T01:29:15.305Z,-40
2022-12-27T01:30:15.094Z,-40
2022-12-27T01:31:15.124Z,-40
2022-12-27T01:32:15.106Z,-40
2022-12-27T01:33:15.180Z,-40
2022-12-27T01:34:15.103Z,-40
2022-12-27T01:35:15.044Z,-40
2022-12-27T01:36:15.034Z,-40
2022-12-27T01:37:15.073Z,-40
2022-12-27T01:38:15.021Z,-40
2022-12-27T01:39:15.000Z,-40
2022-12-27T01:40:15.018Z,-40
2022-12-27T01:41:15.026Z,-40
2022-12-27T01:42:14.972Z,-40
2022-12-27T01:43:14.955Z,-40
2022-12-27T01:44:15.211Z,-40
2022-12-27T01:45:14.959Z,-40
2022-12-27T01:46:15.006Z,-40
2022-12-27T01:47:14.931Z,-40
2022-12-27T01:48:15.087Z,-40
2022-12-27T01:49:14.918Z,-40
2022-12-27T01:50:15.106Z,-40
2022-12-27T01:51:14.885Z,-40
2022-12-27T01:52:14.879Z,-40
2022-12-27T01:53:14.934Z,-40
2022-12-27T01:54:14.839Z,-40
2022-12-27T01:55:14.956Z,-40
2022-12-27T01:56:14.823Z,-40
2022-12-27T01:57:14.843Z,-40
2022-12-27T01:58:14.801Z,-40
2022-12-27T01:59:14.786Z,-40
2022-12-27T02:00:14.802Z,-40
2022-12-27T02:01:14.766Z,-40
2022-12-27T02:02:14.775Z,-40
2022-12-27T02:03:14.757Z,-40
2022-12-27T02:04:14.863Z,-40
2022-12-27T02:05:14.879Z,-40
2022-12-27T02:06:14.714Z,-40
2022-12-27T02:07:14.712Z,-40
2022-12-27T02:08:14.797Z,-40
2022-12-27T02:09:14.741Z,-40
2022-12-27T02:10:14.680Z,-40
2022-12-27T02:11:14.665Z,-40
2022-12-27T02:12:14.782Z,-40
2022-12-27T02:13:14.690Z,-40
2022-12-27T02:14:14.639Z,-40
2022-12-27T02:15:14.702Z,-40
2022-12-27T02:16:14.698Z,-40
2022-12-27T02:17:14.615Z,-40
2022-12-27T02:18:14.606Z,-40
2022-12-27T02:19:14.583Z,-40
2022-12-27T02:20:14.572Z,-40
2022-12-27T02:21:14.594Z,-40
2022-12-27T02:22:14.548Z,-40
2022-12-27T02:23:14.598Z,-40
2022-12-27T02:24:14.524Z,-40
2022-12-27T02:25:14.512Z,-40
2022-12-27T02:26:14.524Z,-40
2022-12-27T02:27:14.492Z,-40
2022-12-27T02:28:14.489Z,-40
2022-12-27T02:29:14.482Z,-40
2022-12-27T02:30:14.462Z,-40
2022-12-27T02:31:14.452Z,-40
2022-12-27T02:32:14.441Z,-40
2022-12-27T02:33:14.439Z,-40
2022-12-27T02:34:14.420Z,-40
2022-12-27T02:35:14.466Z,-40
2022-12-27T02:36:14.393Z,-40
2022-12-27T02:37:14.387Z,-40
2022-12-27T02:38:14.435Z,-40
2022-12-27T02:39:14.366Z,-40
2022-12-27T02:40:14.712Z,-40
2022-12-27T02:41:14.547Z,-40
2022-12-27T02:42:14.335Z,-40
2022-12-27T02:43:14.322Z,-40
2022-12-27T02:44:14.308Z,-40
2022-12-27T02:45:14.327Z,-40
2022-12-27T02:46:14.293Z,-40
2022-12-27T02:47:14.281Z,-40
2022-12-27T02:48:14.292Z,-40
2022-12-27T02:49:14.260Z,-40
2022-12-27T02:50:14.244Z,-40
2022-12-27T02:51:14.250Z,-40
2022-12-27T02:52:14.239Z,-40
2022-12-27T02:53:14.218Z,-40
2022-12-27T02:54:14.205Z,-40
2022-12-27T02:55:14.206Z,-40
2022-12-27T02:56:14.202Z,-40
2022-12-27T02:57:14.175Z,-40
2022-12-27T02:58:14.187Z,-40
2022-12-27T02:59:14.161Z,-40
2022-12-27T03:00:14.141Z,-40
2022-12-27T03:01:14.136Z,-40
2022-12-27T03:02:14.127Z,-40
2022-12-27T03:03:14.130Z,-40
2022-12-27T03:04:14.125Z,-40
2022-12-27T03:05:14.099Z,-40
2022-12-27T03:24:19.212Z,8.71
2022-12-27T03:25:19.222Z,8.91
2022-12-27T03:26:19.185Z,8.71
2022-12-27T03:27:19.103Z,8.93
2022-12-27T03:28:19.147Z,8.94
2022-12-27T03:29:19.174Z,8.83
2022-12-27T03:30:19.075Z,8.93
2022-12-27T03:31:19.032Z,9.15
2022-12-27T03:32:19.016Z,9.06
2022-12-27T03:33:19.028Z,8.99
2022-12-27T03:34:18.994Z,8.87
2022-12-27T03:35:18.985Z,8.68
2022-12-27T03:36:20.038Z,8.71
2022-12-27T03:37:19.045Z,8.71
2022-12-27T03:38:19.012Z,8.88
2022-12-27T03:39:18.984Z,9.04
2022-12-27T03:40:20.070Z,9.09
2022-12-27T03:41:19.050Z,8.86
2022-12-27T03:42:20.038Z,8.72
2022-12-27T03:43:18.934Z,8.76
2022-12-27T03:44:18.912Z,8.9
2022-12-27T03:45:18.909Z,8.9
2022-12-27T03:46:18.910Z,8.99
2022-12-27T03:47:19.914Z,9.16
2022-12-27T03:48:18.864Z,8.9
2022-12-27T03:49:18.903Z,8.84
2022-12-27T03:50:18.874Z,9.06
2022-12-27T03:51:18.826Z,8.97
2022-12-27T03:52:18.817Z,8.75
2022-12-27T03:53:18.798Z,8.71
2022-12-27T03:54:18.856Z,8.93
2022-12-27T03:55:18.782Z,9.05
2022-12-27T03:56:18.778Z,9.23
2022-12-27T03:57:18.842Z,8.9
2022-12-27T03:58:18.793Z,9.23
2022-12-27T03:59:18.823Z,9.1
2022-12-27T04:00:18.762Z,9.2
2022-12-27T04:01:18.857Z,9.2
2022-12-27T04:02:18.843Z,9.18
2022-12-27T04:03:19.746Z,9.02
2022-12-27T04:04:19.782Z,8.9
2022-12-27T04:05:18.743Z,8.96
2022-12-27T04:06:18.717Z,8.94
2022-12-27T04:07:18.793Z,9.05
2022-12-27T04:08:18.816Z,9.23
2022-12-27T04:09:19.707Z,9.24
2022-12-27T04:10:19.827Z,9.16
2022-12-27T04:11:18.647Z,8.91
2022-12-27T04:12:18.626Z,8.91
2022-12-27T04:13:18.745Z,8.87
2022-12-27T04:14:19.622Z,9.18
2022-12-27T04:15:18.691Z,9.34
2022-12-27T04:16:18.588Z,9.21
2022-12-27T04:17:18.562Z,9.23
2022-12-27T04:18:18.624Z,9.24
2022-12-27T04:19:18.550Z,9.25
2022-12-27T04:20:18.591Z,8.97
2022-12-27T04:21:18.588Z,8.79
2022-12-27T04:22:19.581Z,8.91
2022-12-27T04:23:19.498Z,8.79
2022-12-27T04:24:18.507Z,8.81
2022-12-27T04:25:18.489Z,8.78
2022-12-27T04:26:18.815Z,8.94
2022-12-27T04:27:18.508Z,8.94
2022-12-27T04:28:18.432Z,8.83
2022-12-27T04:29:19.483Z,-40
2022-12-27T04:30:18.469Z,-40
2022-12-27T04:31:18.400Z,-40
2022-12-27T04:32:18.469Z,-40
2022-12-27T04:33:18.436Z,-40
2022-12-27T04:34:18.364Z,-40
2022-12-27T04:35:18.343Z,-40
2022-12-27T04:36:18.422Z,-40
2022-12-27T04:37:18.348Z,-40
2022-12-27T04:38:18.450Z,-40
2022-12-27T04:39:18.368Z,-40
2022-12-27T04:40:19.312Z,-40
2022-12-27T04:41:18.400Z,-40
2022-12-27T04:42:18.291Z,-40
2022-12-27T04:43:18.255Z,-40
2022-12-27T04:44:18.620Z,-40
2022-12-27T04:45:18.337Z,-40
2022-12-27T04:46:18.254Z,-40
2022-12-27T04:47:18.243Z,-40
2022-12-27T04:48:18.305Z,-40
2022-12-27T04:49:18.407Z,-40
2022-12-27T04:50:18.187Z,-40
2022-12-27T04:51:18.241Z,-40
2022-12-27T04:52:18.497Z,-40
2022-12-27T04:53:18.161Z,-40
2022-12-27T04:54:18.144Z,-40
2022-12-27T04:55:18.203Z,-40
2022-12-27T04:56:18.140Z,-40
2022-12-27T04:57:18.422Z,-40
2022-12-27T04:58:19.136Z,-40
2022-12-27T04:59:18.363Z,-40
2022-12-27T05:00:18.095Z,-40
2022-12-27T05:01:18.086Z,-40
2022-12-27T05:02:18.099Z,-40
2022-12-27T05:03:18.035Z,-40
2022-12-27T05:04:18.059Z,-40
2022-12-27T05:05:18.025Z,-40
2022-12-27T05:06:18.140Z,-40
2022-12-27T05:07:18.035Z,-40
2022-12-27T05:08:18.445Z,-40
2022-12-27T05:09:18.063Z,-40
2022-12-27T05:10:17.993Z,-40
2022-12-27T05:11:18.218Z,-40
2022-12-27T05:12:17.998Z,-40
2022-12-27T05:13:17.976Z,-40
2022-12-27T05:14:17.956Z,-40
2022-12-27T05:15:18.060Z,-40
2022-12-27T05:16:18.945Z,-40
2022-12-27T05:17:17.902Z,-40
2022-12-27T05:18:17.882Z,-40
2022-12-27T05:19:17.883Z,-40
2022-12-27T05:20:17.889Z,-40
2022-12-27T05:21:18.095Z,-40
2022-12-27T05:22:17.850Z,-40
2022-12-27T05:23:17.837Z,-40
2022-12-27T05:24:18.092Z,-40
2022-12-27T05:25:18.797Z,-40
2022-12-27T05:26:17.803Z,-40
2022-12-27T05:27:17.796Z,-40
2022-12-27T05:28:17.810Z,-40
2022-12-27T05:29:17.790Z,-40
2022-12-27T05:30:17.743Z,-40
2022-12-27T05:31:17.728Z,-40
2022-12-27T05:32:17.741Z,-40
2022-12-27T05:33:17.735Z,-40
2022-12-27T05:34:17.714Z,-40
2022-12-27T05:35:17.755Z,-40
2022-12-27T05:36:17.705Z,-40
2022-12-27T05:37:17.679Z,-40
2022-12-27T05:38:17.707Z,-40
2022-12-27T05:39:17.646Z,-40
2022-12-27T05:40:17.664Z,-40
2022-12-27T05:41:17.634Z,-40
2022-12-27T05:42:17.670Z,-40
2022-12-27T05:43:17.627Z,-40
2022-12-27T05:44:17.730Z,-40
2022-12-27T05:45:17.611Z,-40
2022-12-27T05:46:17.577Z,-40
2022-12-27T05:47:17.660Z,-40
2022-12-27T05:48:17.557Z,-40
2022-12-27T05:49:17.535Z,-40
2022-12-27T05:50:17.634Z,-40
2022-12-27T05:51:17.528Z,-40
2022-12-27T05:52:17.581Z,-40
2022-12-27T05:53:17.570Z,-40
2022-12-27T05:54:17.661Z,-40
2022-12-27T05:55:17.476Z,-40
2022-12-27T05:56:17.470Z,-40
2022-12-27T05:57:17.469Z,-40
2022-12-27T05:58:17.454Z,-40
2022-12-27T05:59:17.440Z,-40
2022-12-27T06:00:17.431Z,-40
2022-12-27T06:01:17.467Z,-40
2022-12-27T06:02:17.417Z,-40
2022-12-27T06:03:17.418Z,-40
2022-12-27T06:04:17.390Z,-40
2022-12-27T06:05:17.367Z,-40
2022-12-27T06:06:17.378Z,-40
2022-12-27T06:07:18.369Z,-40
2022-12-27T06:08:17.344Z,-40
2022-12-27T06:09:17.360Z,-40
2022-12-27T06:10:18.306Z,-40
2022-12-27T06:11:17.316Z,-40
2022-12-27T06:12:17.294Z,-40
2022-12-27T06:13:17.387Z,-40
2022-12-27T06:14:18.365Z,-40
2022-12-27T06:15:17.255Z,-40
2022-12-27T06:16:17.310Z,-40
2022-12-27T06:17:17.419Z,-40
2022-12-27T06:18:17.294Z,-40
2022-12-27T06:19:17.219Z,-40
2022-12-27T06:25:22.608Z,8.03
2022-12-27T06:26:24.125Z,-40
2022-12-27T06:27:22.630Z,-40
2022-12-27T06:28:23.518Z,-40
2022-12-27T06:29:22.561Z,-40
2022-12-27T06:30:22.535Z,-40
2022-12-27T06:31:22.560Z,-40
2022-12-27T06:32:22.469Z,-40
2022-12-27T06:33:22.486Z,-40
2022-12-27T06:34:22.499Z,-40
2022-12-27T06:35:23.535Z,-40
2022-12-27T06:36:22.428Z,-40
2022-12-27T06:37:22.564Z,-40
2022-12-27T06:38:23.434Z,-40
2022-12-27T06:39:22.387Z,-40
2022-12-27T06:40:22.387Z,-40
2022-12-27T06:41:22.375Z,-40
2022-12-27T06:42:22.391Z,-40
2022-12-27T06:43:22.350Z,-40
2022-12-27T06:44:22.333Z,-40
2022-12-27T06:45:22.334Z,-40
2022-12-27T06:46:22.318Z,-40
2022-12-27T06:47:22.296Z,-40
2022-12-27T06:48:22.298Z,-40
2022-12-27T06:49:22.292Z,-40
2022-12-27T06:50:22.288Z,-40
2022-12-27T06:51:22.321Z,-40
2022-12-27T06:52:22.255Z,-40
2022-12-27T06:53:22.374Z,-40
2022-12-27T06:54:23.247Z,-40
2022-12-27T06:55:22.295Z,-40
2022-12-27T06:56:22.221Z,-40
2022-12-27T06:57:22.230Z,-40
2022-12-27T06:58:22.204Z,-40
2022-12-27T06:59:22.180Z,-40
2022-12-27T07:00:22.163Z,-40
2022-12-27T07:01:22.166Z,-40
2022-12-27T07:02:22.202Z,-40
2022-12-27T07:03:22.137Z,-40
2022-12-27T07:04:22.222Z,-40
2022-12-27T07:05:22.215Z,-40
2022-12-27T07:06:22.098Z,-40
2022-12-27T07:07:22.117Z,-40
2022-12-27T07:08:22.139Z,-40
2022-12-27T07:09:23.056Z,-40
2022-12-27T07:10:22.078Z,-40
2022-12-27T07:11:22.063Z,-40
2022-12-27T07:12:22.117Z,-40
2022-12-27T07:13:22.094Z,-40
2022-12-27T07:14:22.010Z,-40
2022-12-27T07:15:22.066Z,-40
2022-12-27T07:16:21.995Z,-40
2022-12-27T07:17:22.001Z,-40
2022-12-27T07:18:21.976Z,-40
2022-12-27T07:19:21.974Z,-40
2022-12-27T07:20:22.098Z,-40
2022-12-27T07:21:21.973Z,-40
2022-12-27T07:22:21.918Z,-40
2022-12-27T07:23:22.021Z,-40
2022-12-27T07:24:21.909Z,-40
2022-12-27T07:25:22.048Z,-40
2022-12-27T07:26:22.920Z,-40
2022-12-27T07:27:21.902Z,-40
2022-12-27T07:28:21.990Z,-40
2022-12-27T07:29:21.954Z,-40
2022-12-27T07:30:22.906Z,-40
2022-12-27T07:31:21.893Z,-40
2022-12-27T07:32:21.835Z,-40
2022-12-27T07:33:22.690Z,-40
2022-12-27T07:34:21.909Z,-40
2022-12-27T07:35:21.837Z,-40
2022-12-27T07:36:21.869Z,-40
2022-12-27T07:37:21.806Z,-40
2022-12-27T07:38:22.979Z,-40
2022-12-27T07:39:22.742Z,-40
2022-12-27T07:40:21.737Z,-40
2022-12-27T07:41:21.725Z,-40
2022-12-27T07:42:21.785Z,-40
2022-12-27T07:43:21.891Z,-40
2022-12-27T07:44:21.909Z,-40
2022-12-27T07:45:21.713Z,-40
2022-12-27T07:46:21.916Z,-40
2022-12-27T07:47:21.819Z,-40
2022-12-27T07:48:22.026Z,-40
2022-12-27T07:49:21.623Z,-40
2022-12-27T07:50:21.662Z,-40
2022-12-27T07:51:21.611Z,-40
2022-12-27T07:52:21.755Z,-40
2022-12-27T07:53:21.585Z,-40
2022-12-27T07:54:21.574Z,-40
2022-12-27T07:55:21.654Z,-40
2022-12-27T07:56:22.571Z,-40
2022-12-27T07:57:21.554Z,-40
2022-12-27T07:58:21.596Z,-40
2022-12-27T07:59:21.594Z,-40
2022-12-27T08:00:21.711Z,-40
2022-12-27T08:01:22.511Z,-40
2022-12-27T08:02:21.518Z,-40
2022-12-27T08:03:21.740Z,-40
2022-12-27T08:04:21.486Z,-40
2022-12-27T08:05:21.449Z,-40
2022-12-27T08:06:21.485Z,-40
2022-12-27T08:07:21.526Z,-40
2022-12-27T08:08:22.541Z,-40
2022-12-27T08:09:21.440Z,-40
2022-12-27T08:10:21.513Z,-40
2022-12-27T08:11:21.388Z,-40
2022-12-27T08:12:21.397Z,-40
2022-12-27T08:13:21.394Z,-40
2022-12-27T08:14:21.377Z,-40
2022-12-27T08:15:21.410Z,-40
2022-12-27T08:16:22.421Z,-40
2022-12-27T08:17:21.344Z,-40
2022-12-27T08:18:21.378Z,-40
2022-12-27T08:19:22.315Z,-40
2022-12-27T08:20:22.417Z,-40
2022-12-27T08:21:21.302Z,-40
2022-12-27T08:22:21.321Z,-40
2022-12-27T08:23:21.300Z,-40
2022-12-27T08:24:21.273Z,-40
2022-12-27T08:25:21.247Z,-40
2022-12-27T08:26:21.246Z,-40
2022-12-27T08:27:21.271Z,-40
2022-12-27T08:30:52.938Z,9.71
2022-12-27T08:42:48.831Z,9.58
2022-12-27T08:48:31.918Z,9.73
2022-12-27T11:29:50.414Z,10.98
2022-12-27T11:30:49.929Z,11.01
2022-12-27T11:31:49.959Z,10.96
2022-12-27T11:32:51.070Z,10.63
2022-12-27T11:33:49.879Z,10.25
2022-12-27T11:34:49.847Z,10.32
2022-12-27T11:35:49.851Z,10.26
2022-12-27T11:36:49.814Z,10.01
2022-12-27T11:37:49.812Z,10.22
2022-12-27T11:38:49.816Z,10.24
2022-12-27T11:39:49.795Z,10.4
2022-12-27T11:40:49.781Z,10.4
2022-12-27T11:41:49.798Z,10.52
2022-12-27T11:42:49.781Z,10.63
2022-12-27T11:43:49.746Z,10.55
2022-12-27T11:44:49.774Z,10.43
2022-12-27T11:45:49.725Z,10.55
2022-12-27T11:46:49.743Z,10.37
2022-12-27T11:47:49.712Z,10.28
2022-12-27T11:48:49.691Z,10.43
2022-12-27T11:49:49.688Z,-40
2022-12-27T11:50:49.765Z,-40
2022-12-27T11:51:49.704Z,-40
2022-12-27T11:52:49.795Z,-40
2022-12-27T11:53:49.637Z,-40
2022-12-27T11:54:49.630Z,-40
2022-12-27T11:55:49.665Z,-40
2022-12-27T11:56:49.612Z,-40
2022-12-27T11:57:49.603Z,-40
2022-12-27T11:58:49.629Z,-40
2022-12-27T11:59:49.588Z,-40
2022-12-27T12:00:50.240Z,-40
2022-12-27T12:01:49.591Z,-40
2022-12-27T12:02:49.546Z,-40
2022-12-27T12:03:49.543Z,-40
2022-12-27T12:04:49.537Z,-40
2022-12-27T12:05:49.587Z,-40
2022-12-27T12:06:49.529Z,-40
2022-12-27T12:07:49.494Z,-40
2022-12-27T12:08:49.488Z,-40
2022-12-27T12:09:49.476Z,-40
2022-12-27T12:10:49.494Z,-40
2022-12-27T12:11:49.488Z,-40
2022-12-27T12:12:49.501Z,-40
2022-12-27T12:13:49.437Z,-40
2022-12-27T12:14:49.425Z,-40
2022-12-27T12:15:49.408Z,-40
2022-12-27T12:16:49.428Z,-40
2022-12-27T12:17:49.388Z,-40
2022-12-27T12:18:49.399Z,-40
2022-12-27T12:19:49.372Z,-40
2022-12-27T12:20:49.392Z,-40
2022-12-27T12:21:49.359Z,-40
2022-12-27T12:22:49.541Z,-40
2022-12-27T12:23:49.335Z,-40
2022-12-27T12:24:49.357Z,-40
2022-12-27T12:25:49.319Z,-40
2022-12-27T12:26:49.315Z,-40
2022-12-27T12:27:49.286Z,-40
2022-12-27T12:28:49.284Z,-40
2022-12-27T12:29:49.270Z,-40
2022-12-27T12:30:49.262Z,-40
2022-12-27T12:31:49.241Z,-40
2022-12-27T12:32:49.237Z,-40
2022-12-27T12:33:49.225Z,-40
2022-12-27T12:34:49.233Z,-40
2022-12-27T12:35:49.223Z,-40
2022-12-27T12:36:49.192Z,-40
2022-12-27T12:37:49.175Z,-40
2022-12-27T12:38:49.169Z,-40
2022-12-27T12:39:49.162Z,-40
2022-12-27T12:40:50.163Z,-40
2022-12-27T12:41:49.130Z,-40
2022-12-27T12:42:49.117Z,-40
2022-12-27T12:43:49.182Z,-40
2022-12-27T12:44:49.103Z,-40
2022-12-27T12:45:49.092Z,-40
2022-12-27T12:46:49.076Z,-40
2022-12-27T12:47:49.066Z,-40
2022-12-27T12:48:49.063Z,-40
2022-12-27T12:49:49.045Z,-40
2022-12-27T12:50:49.041Z,-40
2022-12-27T12:51:49.056Z,-40
2022-12-27T12:52:49.009Z,-40
2022-12-27T12:53:49.001Z,-40
2022-12-27T12:54:48.996Z,-40
2022-12-27T12:55:48.980Z,-40
2022-12-27T12:56:49.018Z,-40
2022-12-27T12:57:48.960Z,-40
2022-12-27T12:58:48.948Z,-40
2022-12-27T12:59:48.952Z,-40
2022-12-27T13:00:48.930Z,-40
2022-12-27T13:01:49.128Z,-40
2022-12-27T13:02:48.921Z,-40
2022-12-27T13:03:48.897Z,-40
2022-12-27T13:04:48.940Z,-40
2022-12-27T13:05:48.882Z,-40
2022-12-27T13:06:48.873Z,-40
2022-12-27T13:07:48.879Z,-40
2022-12-27T13:08:48.840Z,-40
2022-12-27T13:09:48.842Z,-40
2022-12-27T13:10:48.830Z,-40
2022-12-27T13:11:48.809Z,-40
2022-12-27T13:12:48.796Z,-40
2022-12-27T13:13:48.806Z,-40
2022-12-27T13:14:48.788Z,-40
2022-12-27T13:15:48.764Z,-40
2022-12-27T13:16:48.759Z,-40
2022-12-27T13:17:48.745Z,-40
2022-12-27T13:18:48.735Z,-40
2022-12-27T13:19:48.734Z,-40
2022-12-27T13:20:48.714Z,-40
2022-12-27T13:21:48.705Z,-40
2022-12-27T13:22:48.710Z,-40
2022-12-27T13:23:48.681Z,-40
2022-12-27T13:24:48.672Z,-40
2022-12-27T13:25:48.683Z,-40
2022-12-27T13:26:48.679Z,-40
2022-12-27T13:27:48.637Z,-40
2022-12-27T13:28:48.627Z,-40
2022-12-27T13:29:48.648Z,-40
2022-12-27T13:30:48.609Z,-40
2022-12-27T13:31:48.600Z,-40
2022-12-27T13:32:48.593Z,-40
2022-12-27T13:33:48.620Z,-40
2022-12-27T13:34:48.573Z,-40
2022-12-27T13:35:48.563Z,-40
2022-12-27T13:36:48.548Z,-40
2022-12-27T13:37:48.533Z,-40
2022-12-27T13:38:48.587Z,-40
2022-12-27T13:39:48.581Z,-40
2022-12-27T13:40:48.517Z,-40
2022-12-27T13:41:48.503Z,-40
2022-12-27T13:42:48.485Z,-40
2022-12-27T13:43:48.487Z,-40
2022-12-27T13:44:48.459Z,-40
2022-12-27T13:45:48.448Z,-40
2022-12-27T13:46:48.446Z,-40
2022-12-27T13:47:48.427Z,-40
2022-12-27T13:48:48.420Z,-40
2022-12-27T13:49:48.407Z,-40
2022-12-27T13:50:48.403Z,-40
2022-12-27T13:51:48.400Z,-40
2022-12-27T13:52:48.400Z,-40
2022-12-27T13:53:48.399Z,-40
2022-12-27T13:54:48.366Z,-40
2022-12-27T13:55:48.344Z,-40
2022-12-27T13:56:48.361Z,-40
2022-12-27T13:57:48.352Z,-40
2022-12-27T13:58:48.309Z,-40
2022-12-27T13:59:48.330Z,-40
2022-12-27T14:00:48.299Z,-40
2022-12-27T14:01:48.282Z,-40
2022-12-27T14:02:48.278Z,-40
2022-12-27T14:22:36.150Z,11.74
2022-12-27T14:23:35.968Z,12.04
2022-12-27T14:24:35.965Z,12.09
2022-12-27T14:25:36.018Z,12.44
2022-12-27T14:26:35.886Z,12.41
2022-12-27T14:27:35.846Z,-40
2022-12-27T14:28:35.834Z,-40
2022-12-27T14:29:35.846Z,-40
2022-12-27T14:30:35.828Z,-40
2022-12-27T14:31:35.799Z,-40
2022-12-27T14:32:35.788Z,-40
2022-12-27T14:33:35.862Z,-40
2022-12-27T14:34:35.774Z,-40
2022-12-27T14:35:35.748Z,-40
2022-12-27T14:36:35.754Z,-40
2022-12-27T14:37:35.765Z,-40
2022-12-27T14:38:35.800Z,-40
2022-12-27T14:39:35.742Z,-40
2022-12-27T14:40:35.768Z,-40
2022-12-27T14:41:35.860Z,-40
2022-12-27T14:42:35.684Z,-40
2022-12-27T14:43:35.805Z,-40
2022-12-27T14:44:35.680Z,-40
2022-12-27T14:45:35.910Z,-40
2022-12-27T14:46:35.704Z,-40
2022-12-27T14:47:35.755Z,-40
2022-12-27T14:48:35.619Z,-40
2022-12-27T14:49:35.631Z,-40
2022-12-27T14:50:35.622Z,-40
2022-12-27T14:51:35.661Z,-40
2022-12-27T14:52:35.582Z,-40
2022-12-27T14:53:35.598Z,-40
2022-12-27T14:54:35.558Z,-40
2022-12-27T14:55:36.549Z,-40
2022-12-27T14:56:35.554Z,-40
2022-12-27T14:57:35.522Z,-40
2022-12-27T14:58:35.515Z,-40
2022-12-27T14:59:35.495Z,-40
2022-12-27T15:00:35.496Z,-40
2022-12-27T15:01:35.486Z,-40
2022-12-27T15:02:35.820Z,-40
2022-12-27T15:03:35.509Z,-40
2022-12-27T15:04:36.530Z,-40
2022-12-27T15:05:35.609Z,-40
2022-12-27T15:06:35.451Z,-40
2022-12-27T15:07:35.432Z,-40
2022-12-27T15:08:35.418Z,-40
2022-12-27T15:09:35.417Z,-40
2022-12-27T15:10:35.434Z,-40
2022-12-27T15:11:35.489Z,-40
2022-12-27T15:12:35.364Z,-40
2022-12-27T15:13:35.377Z,-40
2022-12-27T15:14:35.355Z,-40
2022-12-27T15:15:35.364Z,-40
2022-12-27T15:16:35.354Z,-40
2022-12-27T15:17:35.305Z,-40
2022-12-27T15:18:35.467Z,-40
2022-12-27T15:19:35.334Z,-40
2022-12-27T15:20:35.379Z,-40
2022-12-27T15:21:35.266Z,-40
2022-12-27T15:22:35.434Z,-40
2022-12-27T15:23:35.256Z,-40
2022-12-27T15:24:35.250Z,-40
2022-12-27T15:25:35.275Z,-40
2022-12-27T15:26:35.260Z,-40
2022-12-27T15:27:35.220Z,-40
2022-12-27T15:28:35.195Z,-40
2022-12-27T15:29:36.201Z,-40
2022-12-27T15:30:35.230Z,-40
2022-12-27T15:31:35.214Z,-40
2022-12-27T15:32:35.160Z,-40
2022-12-27T15:33:35.199Z,-40
2022-12-27T15:34:35.153Z,-40
2022-12-27T15:35:35.119Z,-40
2022-12-27T15:36:35.126Z,-40
2022-12-27T15:37:35.116Z,-40
2022-12-27T15:38:35.098Z,-40
2022-12-27T15:39:35.083Z,-40
2022-12-27T15:40:35.183Z,-40
2022-12-27T15:41:35.063Z,-40
2022-12-27T15:42:35.251Z,-40
2022-12-27T15:43:35.054Z,-40
2022-12-27T15:44:35.050Z,-40
2022-12-27T15:45:35.030Z,-40
2022-12-27T15:46:35.084Z,-40
2022-12-27T15:47:35.017Z,-40
2022-12-27T15:48:34.995Z,-40
2022-12-27T15:49:35.319Z,-40
2022-12-27T15:50:34.955Z,-40
2022-12-27T15:51:34.953Z,-40
2022-12-27T15:52:34.944Z,-40
2022-12-27T15:53:35.048Z,-40
2022-12-27T15:54:34.934Z,-40
2022-12-27T15:55:34.916Z,-40
2022-12-27T15:56:34.902Z,-40
2022-12-27T15:57:34.894Z,-40
2022-12-27T15:58:34.878Z,-40
2022-12-27T15:59:34.910Z,-40
2022-12-27T16:00:34.888Z,-40
2022-12-27T16:01:34.886Z,-40
2022-12-27T16:02:34.860Z,-40
2022-12-27T16:03:34.834Z,-40
2022-12-27T16:04:34.825Z,-40
2022-12-27T16:05:34.815Z,-40
2022-12-27T16:06:34.784Z,-40
2022-12-27T16:07:34.812Z,-40
2022-12-27T16:08:34.767Z,-40
2022-12-27T16:09:34.750Z,-40
2022-12-27T16:10:34.750Z,-40
2022-12-27T16:11:34.746Z,-40
2022-12-27T16:12:34.753Z,-40
2022-12-27T16:13:34.706Z,-40
2022-12-27T16:14:34.714Z,-40
2022-12-27T16:15:34.697Z,-40
2022-12-27T16:16:34.678Z,-40
2022-12-27T16:17:34.691Z,-40
2022-12-27T16:18:34.675Z,-40
2022-12-27T16:19:34.682Z,-40
2022-12-27T16:20:34.669Z,-40
2022-12-27T16:21:34.632Z,-40
2022-12-27T16:22:34.623Z,-40
2022-12-27T16:23:34.604Z,-40
2022-12-27T16:24:34.630Z,-40
2022-12-27T16:25:34.585Z,-40
2022-12-27T16:26:34.609Z,-40
2022-12-27T16:27:34.580Z,-40
2022-12-27T16:28:34.641Z,-40
2022-12-27T16:29:35.571Z,-40
2022-12-27T16:30:34.583Z,-40
2022-12-27T16:31:34.516Z,-40
2022-12-27T16:32:34.518Z,-40
2022-12-27T16:33:34.526Z,-40
2022-12-27T16:34:34.502Z,-40
2022-12-27T16:35:34.495Z,-40
2022-12-27T16:36:34.491Z,-40
2022-12-27T16:37:34.465Z,-40
2022-12-27T16:38:34.456Z,-40
2022-12-27T16:39:34.436Z,-40
2022-12-27T16:40:34.433Z,-40
2022-12-27T16:41:34.410Z,-40
2022-12-27T16:42:34.407Z,-40
2022-12-27T16:43:34.390Z,-40
2022-12-27T16:44:34.401Z,-40
2022-12-27T16:45:34.405Z,-40
2022-12-27T16:46:34.364Z,-40
2022-12-27T16:47:34.377Z,-40
2022-12-27T16:48:34.430Z,-40
2022-12-27T16:49:34.359Z,-40
2022-12-27T16:50:34.385Z,-40
2022-12-27T16:51:34.388Z,-40
2022-12-27T16:52:34.389Z,-40
2022-12-27T16:53:34.295Z,-40
2022-12-27T16:54:34.306Z,-40
2022-12-27T16:55:34.293Z,-40
2022-12-27T16:56:34.270Z,-40
2022-12-27T16:57:34.266Z,-40
2022-12-27T17:00:06.323Z,10.6
2022-12-27T17:01:07.224Z,10.86
2022-12-27T17:02:06.203Z,10.84
2022-12-27T17:03:06.284Z,10.83
2022-12-27T17:04:07.244Z,11.02
2022-12-27T17:05:06.253Z,11.1
2022-12-27T17:06:07.191Z,11.14
2022-12-27T17:07:06.233Z,11.11
2022-12-27T17:08:06.131Z,11.02
2022-12-27T17:09:06.128Z,11.11
2022-12-27T17:10:06.114Z,11.25
2022-12-27T17:11:06.100Z,11.29
2022-12-27T17:12:06.092Z,11.54
2022-12-27T17:13:06.099Z,11.72
2022-12-27T17:14:06.064Z,11.65
2022-12-27T17:15:06.053Z,11.21
2022-12-27T17:16:06.035Z,-40
2022-12-27T17:17:06.054Z,-40
2022-12-27T17:18:06.042Z,-40
2022-12-27T17:19:06.048Z,-40
2022-12-27T17:20:06.008Z,-40
2022-12-27T17:21:06.000Z,-40
2022-12-27T17:22:06.001Z,-40
2022-12-27T22:53:09.263Z,10.01
2022-12-27T22:54:10.301Z,9.67
2022-12-27T22:55:09.046Z,9.78
2022-12-27T22:56:10.025Z,10.04
2022-12-27T22:57:08.979Z,9.86
2022-12-27T22:58:08.937Z,10.01
2022-12-27T22:59:08.934Z,10.01
2022-12-27T23:00:08.932Z,10.14
2022-12-27T23:01:08.941Z,10.14
2022-12-27T23:02:08.902Z,10.01
2022-12-27T23:03:08.887Z,9.68
2022-12-27T23:04:08.885Z,9.94
2022-12-27T23:05:08.971Z,9.79
2022-12-27T23:06:16.704Z,9.91
2022-12-27T23:07:08.844Z,-40
2022-12-27T23:08:08.855Z,-40
2022-12-27T23:09:08.821Z,-40
2022-12-27T23:10:08.814Z,-40
2022-12-27T23:11:08.829Z,-40
2022-12-27T23:12:08.796Z,-40
2022-12-27T23:13:08.786Z,-40
2022-12-27T23:14:08.801Z,-40
2022-12-27T23:15:08.757Z,-40
2022-12-27T23:16:08.746Z,-40
2022-12-27T23:17:08.739Z,-40
2022-12-27T23:18:08.733Z,-40
2022-12-27T23:19:08.721Z,-40
2022-12-27T23:20:08.704Z,-40
2022-12-27T23:21:08.691Z,-40
2022-12-27T23:22:08.683Z,-40
2022-12-27T23:23:08.673Z,-40
2022-12-27T23:24:08.664Z,-40
2022-12-27T23:25:08.657Z,-40
2022-12-27T23:26:08.640Z,-40
2022-12-27T23:27:08.643Z,-40
2022-12-27T23:28:08.621Z,-40
2022-12-27T23:29:08.608Z,-40
2022-12-27T23:30:08.603Z,-40
2022-12-27T23:31:08.594Z,-40
2022-12-27T23:32:08.576Z,-40